createdAt,value
2022-11-20T08:03:01.106Z,12992.9
2022-11-20T08:04:01.112Z,13808.9
2022-11-20T08:05:01.362Z,14564.9
2022-11-20T08:06:01.110Z,14836.9
2022-11-20T08:07:01.362Z,15033.5
2022-11-20T08:08:01.456Z,15230.2
2022-11-20T08:09:01.105Z,15713.7
2022-11-20T08:10:01.105Z,16015.4
2022-11-20T08:11:01.136Z,16725.5
2022-11-20T08:12:01.324Z,17339.5
2022-11-20T08:13:01.101Z,17953.4
2022-11-20T08:14:01.102Z,18804.3
2022-11-20T08:15:01.108Z,19655.3
2022-11-20T08:16:01.105Z,21638.5
2022-11-20T08:17:01.847Z,23621.7
2022-11-20T08:18:23.626Z,25604.9
2022-11-20T08:19:01.083Z,25974.3
2022-11-20T08:20:01.105Z,26343.7
2022-11-20T08:21:01.104Z,27091.8
2022-11-20T08:22:01.327Z,27839.9
2022-11-20T08:23:01.365Z,28588.1
2022-11-20T08:24:01.119Z,29160.3
2022-11-20T08:25:01.106Z,29732.6
2022-11-20T08:26:01.120Z,29945.5
2022-11-20T08:27:01.389Z,30158.3
2022-11-20T08:28:03.410Z,30371.2
2022-11-20T08:29:01.113Z,29990.0
2022-11-20T08:30:01.115Z,29608.8
2022-11-20T08:31:01.126Z,27984.3
2022-11-20T08:32:01.750Z,26359.9
2022-11-20T08:33:01.116Z,24735.4
2022-11-20T08:34:02.985Z,24827.1
2022-11-20T08:35:01.112Z,24918.9
2022-11-20T08:36:01.110Z,25791.7
2022-11-20T08:37:01.334Z,26664.6
2022-11-20T08:38:01.108Z,27537.5
2022-11-20T08:39:01.107Z,28249.6
2022-11-20T08:40:01.116Z,28961.7
2022-11-20T08:41:01.114Z,29160.7
2022-11-20T08:42:01.882Z,29359.7
2022-11-20T08:43:01.117Z,29558.7
2022-11-20T08:44:01.114Z,29611.5
2022-11-20T08:45:01.124Z,29664.3
2022-11-20T08:46:01.112Z,29810.1
2022-11-20T08:47:01.977Z,29955.9
2022-11-20T08:48:01.119Z,30101.7
2022-11-20T08:49:01.110Z,30130.7
2022-11-20T08:50:01.109Z,30159.6
2022-11-20T08:51:01.110Z,30444.7
2022-11-20T08:52:02.021Z,30729.9
2022-11-20T08:53:01.123Z,31015.0
2022-11-20T08:54:01.372Z,33002.5
2022-11-20T08:55:01.406Z,34990.1
2022-11-20T08:56:01.117Z,37441.7
2022-11-20T08:57:01.887Z,39893.4
2022-11-20T08:58:01.119Z,42345.1
2022-11-20T09:00:08.915Z,44957.9
2022-11-20T09:01:01.120Z,47570.8
2022-11-20T09:02:02.350Z,50183.2
2022-11-20T09:03:01.135Z,52795.6
2022-11-20T09:04:01.109Z,55408.0
2022-11-20T09:05:01.101Z,57992.6
2022-11-20T09:06:01.102Z,60577.2
2022-11-20T09:07:02.165Z,62229.8
2022-11-20T09:08:01.107Z,63882.4
2022-11-20T09:09:06.277Z,65377.7
2022-11-20T09:14:01.109Z,64663.1
2022-11-20T09:15:05.528Z,64105.7
2022-11-20T09:16:01.107Z,62734.3
2022-11-20T09:17:01.882Z,61363.0
2022-11-20T09:18:06.115Z,59991.7
2022-11-20T09:19:40.672Z,57929.7
2022-11-20T09:20:01.097Z,55867.8
2022-11-20T09:21:01.203Z,53251.5
2022-11-20T09:22:01.325Z,50635.1
2022-11-20T09:23:01.117Z,48018.8
2022-11-20T09:24:01.114Z,45763.5
2022-11-20T09:25:01.106Z,43508.1
2022-11-20T09:26:01.136Z,40756.1
2022-11-20T09:27:02.399Z,38004.1
2022-11-20T09:28:01.133Z,35252.1
2022-11-20T09:29:01.178Z,33263.1
2022-11-20T09:30:01.117Z,31274.1
2022-11-20T09:31:01.143Z,30468.7
2022-11-20T09:32:01.815Z,29663.3
2022-11-20T09:33:01.381Z,28857.9
2022-11-20T09:34:01.112Z,28856.2
2022-11-20T10:01:00.411Z,53394.5
2022-11-20T10:02:00.361Z,57441.3
2022-11-20T10:03:05.387Z,59464.8
2022-11-20T10:04:00.321Z,60678.8
2022-11-20T10:05:00.676Z,61488.2
2022-11-20T10:06:00.323Z,62066.3
2022-11-20T10:07:30.118Z,62499.9
2022-11-20T10:08:00.636Z,62837.1
2022-11-20T10:09:00.330Z,63106.9
2022-11-20T10:10:01.354Z,63327.6
2022-11-20T10:11:00.334Z,63511.6
2022-11-20T10:12:00.327Z,63667.2
2022-11-20T10:13:00.340Z,63800.6
2022-11-20T10:14:00.326Z,63916.3
2022-11-20T10:41:00.464Z,64845.9
2022-11-20T10:42:00.469Z,64156.9
2022-11-20T10:43:00.337Z,63467.8
2022-11-20T10:56:00.672Z,64156.9
2022-11-20T10:57:00.333Z,64845.9
2022-11-20T10:58:00.336Z,65535.0
2022-11-20T11:00:00.833Z,65535.0
2022-11-20T11:11:00.339Z,64457.9
2022-11-20T11:12:04.317Z,63380.7
2022-11-20T11:13:00.408Z,62303.6
2022-11-20T11:14:00.346Z,60507.5
2022-11-20T11:16:00.350Z,56930.7
2022-11-20T11:17:00.361Z,55150.1
2022-11-20T11:18:00.345Z,53369.5
2022-11-20T11:19:00.352Z,51714.7
2022-11-20T11:21:00.351Z,49258.9
2022-11-20T11:22:00.642Z,48457.9
2022-11-20T11:23:00.354Z,47657.0
2022-11-20T11:24:13.789Z,45939.6
2022-11-20T11:25:00.538Z,44222.2
2022-11-20T11:26:00.351Z,45299.3
2022-11-20T11:27:01.886Z,46376.5
2022-11-20T11:28:00.366Z,47453.6
2022-11-20T11:29:00.356Z,48434.3
2022-11-20T11:31:00.355Z,51195.7
2022-11-20T11:32:00.342Z,52976.3
2022-11-20T11:33:00.351Z,54756.9
2022-11-20T11:34:00.346Z,56411.7
2022-11-20T11:35:01.044Z,58066.6
2022-11-20T11:36:00.345Z,58829.9
2022-11-20T11:37:00.387Z,59593.1
2022-11-20T11:38:00.356Z,60356.4
2022-11-20T11:39:00.348Z,61513.7
2022-11-20T11:40:23.717Z,62670.9
2022-11-20T11:44:00.410Z,63486.3
2022-11-20T11:45:01.179Z,64301.7
2022-11-20T11:46:00.450Z,63113.0
2022-11-20T11:47:00.369Z,61924.3
2022-11-20T11:48:00.375Z,60735.5
2022-11-20T11:51:00.644Z,60773.2
2022-11-20T11:52:00.341Z,60810.9
2022-11-20T11:53:00.373Z,60848.5
2022-11-20T11:54:00.348Z,61408.7
2022-11-20T11:55:01.359Z,61968.8
2022-11-20T12:00:02.428Z,61968.8
2022-11-20T12:01:00.356Z,63157.5
2022-11-20T12:02:00.482Z,64346.3
2022-11-20T12:03:00.381Z,65535.0
2022-11-20T12:11:00.354Z,64965.2
2022-11-20T12:12:00.352Z,64395.4
2022-11-20T12:13:00.357Z,63825.6
2022-11-20T12:14:00.357Z,63483.0
2022-11-20T12:15:01.366Z,63140.4
2022-11-20T12:26:00.353Z,63710.2
2022-11-20T12:27:00.359Z,64280.0
2022-11-20T12:28:00.349Z,64849.8
2022-11-20T12:29:00.355Z,65192.4
2022-11-20T12:30:01.432Z,65535.0
2022-11-20T12:31:00.355Z,65216.3
2022-11-20T12:32:00.356Z,64897.7
2022-11-20T12:33:00.421Z,64579.0
2022-11-20T12:34:00.350Z,64024.3
2022-11-20T12:35:11.212Z,63469.5
2022-11-20T12:36:00.349Z,62187.4
2022-11-20T12:37:00.428Z,60905.3
2022-11-20T12:38:00.352Z,59623.1
2022-11-20T12:39:00.372Z,58085.1
2022-11-20T12:40:01.123Z,56547.0
2022-11-20T12:41:00.358Z,54773.1
2022-11-20T12:42:00.356Z,52999.3
2022-11-20T12:43:00.367Z,51225.4
2022-11-20T12:44:00.356Z,49001.5
2022-11-20T12:45:01.573Z,46777.7
2022-11-20T12:46:00.570Z,44728.9
2022-11-20T12:47:00.370Z,42680.2
2022-11-20T12:48:00.362Z,40631.5
2022-11-20T12:49:00.381Z,39005.9
2022-11-20T12:51:14.330Z,37342.3
2022-11-20T12:52:00.352Z,37304.4
2022-11-20T12:53:00.353Z,37266.5
2022-11-20T12:54:00.363Z,36865.3
2022-11-20T12:55:01.155Z,36464.1
2022-11-20T12:56:00.361Z,36345.0
2022-11-20T12:57:03.735Z,36225.9
2022-11-20T12:58:00.363Z,36106.9
2022-11-20T12:59:00.365Z,38330.7
2022-11-20T13:00:01.927Z,40554.6
2022-11-20T13:01:00.462Z,42922.0
2022-11-20T13:02:00.365Z,45289.4
2022-11-20T13:03:00.360Z,47656.8
2022-11-20T13:04:00.624Z,49837.1
2022-11-20T13:05:01.120Z,52017.5
2022-11-20T13:06:00.365Z,53337.5
2022-11-20T13:07:00.446Z,54657.6
2022-11-20T13:08:00.367Z,55977.7
2022-11-20T13:09:00.452Z,57916.9
2022-11-20T13:10:01.329Z,59856.2
2022-11-20T13:11:00.627Z,61749.1
2022-11-20T13:12:00.370Z,63642.1
2022-11-20T13:13:01.454Z,65535.0
2022-11-20T13:15:01.409Z,65535.0
2022-11-20T13:44:03.085Z,64113.4
2022-11-20T13:45:01.696Z,62691.8
2022-11-20T13:46:00.790Z,60377.1
2022-11-20T13:47:00.383Z,58062.5
2022-11-20T13:48:00.698Z,55747.8
2022-11-20T13:49:00.623Z,53174.1
2022-11-20T13:50:01.010Z,50600.5
2022-11-20T13:51:00.953Z,47927.5
2022-11-20T13:52:00.391Z,45254.6
2022-11-20T13:53:00.393Z,42581.7
2022-11-20T13:54:00.599Z,39860.7
2022-11-20T13:55:00.407Z,37139.8
2022-11-20T13:56:00.922Z,34376.7
2022-11-20T13:57:00.404Z,31613.5
2022-11-20T13:58:00.396Z,28850.4
2022-11-20T13:59:04.884Z,27458.1
2022-11-20T14:00:01.490Z,26065.7
2022-11-20T14:01:00.429Z,25526.6
2022-11-20T14:02:00.394Z,24987.5
2022-11-20T14:03:00.381Z,24448.3
2022-11-20T14:04:15.462Z,24129.2
2022-11-20T14:05:00.879Z,23810.1
2022-11-20T14:06:00.985Z,23550.3
2022-11-20T14:07:00.479Z,23290.6
2022-11-20T14:08:00.672Z,23030.9
2022-11-20T14:09:00.386Z,22783.8
2022-11-20T14:30:01.341Z,16001.0
2022-11-20T14:31:00.506Z,15657.5
2022-11-20T14:32:00.507Z,15543.0
2022-11-20T14:33:00.497Z,15485.8
2022-11-20T14:34:00.507Z,15318.8
2022-11-20T14:35:00.769Z,15207.5
2022-11-20T14:36:00.499Z,15042.9
2022-11-20T14:37:00.500Z,14919.4
2022-11-20T14:38:00.500Z,14823.3
2022-11-20T14:39:00.503Z,14709.8
2022-11-20T14:41:00.778Z,14523.1
2022-11-20T14:42:00.503Z,14443.7
2022-11-20T14:43:00.499Z,14375.6
2022-11-20T14:44:00.569Z,14329.3
2022-11-20T14:46:00.502Z,14059.5
2022-11-20T14:47:00.502Z,13944.3
2022-11-20T14:48:00.504Z,13829.1
2022-11-20T14:49:00.520Z,13686.6
2022-11-20T14:50:10.514Z,13544.1
2022-11-20T14:51:00.532Z,13357.4
2022-11-20T14:52:00.504Z,13170.7
2022-11-20T14:53:00.513Z,12983.9
2022-11-20T14:54:00.507Z,12752.7
2022-11-20T14:55:00.735Z,12521.4
2022-11-20T14:56:00.509Z,12195.1
2022-11-20T14:57:00.501Z,11868.7
2022-11-20T14:58:00.513Z,11542.4
2022-11-20T14:59:00.511Z,11110.3
2022-11-20T15:01:00.508Z,10177.9
2022-11-20T15:02:00.520Z,9677.7
2022-11-20T15:03:00.511Z,9177.5
2022-11-20T15:04:00.523Z,8680.6
2022-11-20T15:05:00.779Z,8183.7
2022-11-20T15:06:00.513Z,7720.3
2022-11-20T15:07:00.588Z,7257.0
2022-11-20T15:08:00.513Z,6793.7
2022-11-20T15:09:00.586Z,6356.5
2022-11-20T15:10:01.623Z,5919.4
2022-11-20T15:11:00.514Z,5553.2
2022-11-20T15:12:00.512Z,5187.0
2022-11-20T15:13:00.513Z,4820.8
2022-11-20T15:14:00.511Z,4515.3
2022-11-20T15:15:01.413Z,4209.7
2022-11-20T15:16:00.519Z,3949.1
2022-11-20T15:17:00.515Z,3688.4
2022-11-20T15:18:00.514Z,3427.7
2022-11-20T15:19:00.532Z,3208.1
2022-11-20T15:21:00.521Z,2794.6
2022-11-20T15:22:00.522Z,2600.8
2022-11-20T15:23:00.562Z,2407.0
2022-11-20T15:24:00.520Z,2236.0
2022-11-20T15:26:00.523Z,1914.8
2022-11-20T15:27:00.632Z,1764.6
2022-11-20T15:28:00.535Z,1614.4
2022-11-20T15:29:00.519Z,1483.1
2022-11-20T15:30:01.479Z,1351.9
2022-11-20T15:31:00.522Z,1239.3
2022-11-20T15:32:00.524Z,1126.7
2022-11-20T15:33:00.519Z,1014.1
2022-11-20T15:34:00.515Z,920.1
2022-11-20T15:35:01.572Z,826.2
2022-11-20T15:36:00.528Z,749.9
2022-11-20T15:37:00.516Z,673.5
2022-11-20T15:38:00.524Z,597.2
2022-11-20T15:39:00.527Z,535.5
2022-11-20T15:40:01.220Z,473.9
2022-11-20T15:41:00.529Z,428.7
2022-11-20T15:42:05.562Z,379.7
2022-11-20T15:43:00.526Z,330.7
2022-11-20T15:44:00.722Z,292.6
2022-11-20T15:45:01.228Z,254.5
2022-11-20T15:46:00.523Z,227.3
2022-11-20T15:47:00.526Z,198.5
2022-11-20T15:48:00.524Z,169.6
2022-11-20T15:49:00.518Z,148.1
2022-11-20T15:51:00.640Z,112.1
2022-11-20T15:52:00.535Z,96.9
2022-11-20T15:53:00.542Z,81.6
2022-11-20T15:54:00.533Z,71.2
2022-11-20T15:55:10.308Z,60.8
2022-11-20T15:56:00.522Z,50.4
2022-11-20T15:57:00.525Z,43.5
2022-11-20T15:58:00.611Z,36.5
2022-11-20T15:59:00.525Z,31.9
2022-11-20T16:01:00.577Z,22.7
2022-11-20T16:02:00.560Z,19.7
2022-11-20T16:03:00.587Z,16.6
2022-11-20T16:04:00.581Z,14.5
2022-11-20T16:05:00.853Z,12.5
2022-11-20T16:06:00.525Z,10.4
2022-11-20T16:07:00.574Z,9.0
2022-11-20T16:08:00.532Z,7.6
2022-11-20T16:09:00.522Z,6.7
2022-11-20T16:10:01.286Z,5.7
2022-11-20T16:11:01.551Z,4.8
2022-11-20T16:12:00.527Z,4.1
2022-11-20T16:13:00.524Z,3.5
2022-11-20T16:14:00.522Z,3.1
2022-11-20T16:15:01.516Z,2.7
2022-11-20T16:16:00.523Z,2.3
2022-11-20T16:17:00.680Z,1.9
2022-11-20T16:18:00.536Z,1.6
2022-11-20T16:19:00.596Z,1.4
2022-11-20T16:20:01.220Z,1.2
2022-11-20T16:21:00.524Z,1.0
2022-11-20T16:22:02.845Z,0.9
2022-11-20T16:23:00.531Z,0.7
2022-11-20T16:24:05.541Z,0.6
2022-11-20T16:25:00.886Z,0.5
2022-11-20T16:26:00.606Z,0.3
2022-11-20T16:28:00.537Z,0.2
2022-11-20T16:29:00.532Z,0.1
2022-11-20T16:30:01.476Z,0.1
